createdAt,value
2017-08-24T00:06:35.560Z,68.80
2017-08-24T00:09:06.410Z,70.20
2017-08-24T00:11:36.511Z,70.40
2017-08-24T00:14:06.648Z,70.00
2017-08-24T00:16:37.220Z,70.10
2017-08-24T00:19:07.296Z,71.20
2017-08-24T00:21:37.704Z,70.40
2017-08-24T00:24:07.805Z,70.00
2017-08-24T00:26:38.029Z,70.30
2017-08-24T00:29:09.629Z,70.40
2017-08-24T00:31:39.811Z,70.80
2017-08-24T00:34:10.009Z,70.90
2017-08-24T00:36:40.749Z,71.10
2017-08-24T00:39:10.871Z,70.90
2017-08-24T00:41:42.865Z,71.40
2017-08-24T00:44:12.973Z,70.80
2017-08-24T00:46:43.236Z,70.30
2017-08-24T00:49:14.718Z,72.10
2017-08-24T00:51:44.872Z,72.30
2017-08-24T00:54:15.078Z,72.20
2017-08-24T00:56:45.442Z,73.20
2017-08-24T00:59:15.554Z,72.70
2017-08-24T01:01:45.738Z,72.10
2017-08-24T01:04:16.046Z,72.20
2017-08-24T01:06:46.568Z,73.10
2017-08-24T01:09:16.753Z,72.70
2017-08-24T01:15:22.066Z,72.40
2017-08-24T01:17:52.307Z,72.30
2017-08-24T01:20:22.727Z,72.30
2017-08-24T01:22:52.954Z,72.40
2017-08-24T01:25:23.453Z,72.80
2017-08-24T01:27:53.739Z,72.20
2017-08-24T01:30:23.934Z,72.10
2017-08-24T01:32:55.570Z,71.70
2017-08-24T01:35:25.940Z,72.50
2017-08-24T01:37:56.421Z,72.00
2017-08-24T01:40:27.850Z,71.90
2017-08-24T01:42:58.315Z,72.80
2017-08-24T01:45:28.843Z,73.70
2017-08-24T01:47:59.022Z,72.90
2017-08-24T01:50:29.474Z,73.00
2017-08-24T01:52:59.657Z,72.80
2017-08-24T01:55:29.883Z,74.00
2017-08-24T01:58:00.326Z,75.10
2017-08-24T02:00:30.809Z,73.90
2017-08-24T02:03:01.106Z,73.90
2017-08-24T02:05:31.334Z,74.40
2017-08-24T02:08:01.583Z,74.40
2017-08-24T02:10:31.783Z,74.20
2017-08-24T02:13:01.970Z,73.90
2017-08-24T02:15:32.354Z,74.50
2017-08-24T02:18:05.114Z,74.10
2017-08-24T02:20:35.342Z,73.80
2017-08-24T02:23:05.538Z,73.30
2017-08-24T02:25:35.986Z,73.40
2017-08-24T02:28:06.474Z,73.60
2017-08-24T02:30:36.654Z,73.60
2017-08-24T02:33:06.978Z,74.20
2017-08-24T02:35:37.350Z,74.70
2017-08-24T02:38:07.514Z,74.70
2017-08-24T02:40:37.705Z,74.80
2017-08-24T02:43:07.895Z,75.90
2017-08-24T02:45:38.481Z,75.50
2017-08-24T02:48:08.647Z,77.10
2017-08-24T02:50:38.836Z,77.30
2017-08-24T02:53:09.358Z,77.50
2017-08-24T02:55:39.555Z,77.40
2017-08-24T02:58:09.767Z,78.70
2017-08-24T03:00:39.938Z,79.30
2017-08-24T03:03:10.178Z,80.10
2017-08-24T03:05:40.600Z,80.20
2017-08-24T03:08:10.850Z,80.80
2017-08-24T03:10:41.139Z,79.60
2017-08-24T03:13:11.644Z,80.70
2017-08-24T03:15:41.889Z,80.20
2017-08-24T03:18:12.212Z,81.30
2017-08-24T03:20:42.410Z,81.60
2017-08-24T03:23:12.625Z,82.50
2017-08-24T03:25:43.119Z,83.10
2017-08-24T03:28:13.631Z,83.30
2017-08-24T03:30:43.845Z,83.40
2017-08-24T03:33:14.178Z,84.10
2017-08-24T03:35:45.150Z,84.80
2017-08-24T03:38:15.403Z,84.70
2017-08-24T03:40:45.565Z,84.90
2017-08-24T03:43:16.904Z,85.70
2017-08-24T03:45:47.119Z,85.50
2017-08-24T03:48:17.431Z,86.00
2017-08-24T03:50:47.925Z,85.70
2017-08-24T03:53:18.494Z,86.00
2017-08-24T03:55:48.690Z,85.60
2017-08-24T03:58:19.371Z,85.70
2017-08-24T04:00:49.578Z,86.50
2017-08-24T04:03:19.818Z,86.20
2017-08-24T04:05:50.351Z,85.60
2017-08-24T04:08:21.319Z,86.40
2017-08-24T04:10:51.658Z,86.30
2017-08-24T04:13:22.121Z,86.20
2017-08-24T04:15:52.603Z,85.90
2017-08-24T04:18:22.870Z,86.40
2017-08-24T04:20:53.148Z,85.70
2017-08-24T04:23:23.363Z,86.70
2017-08-24T04:25:53.869Z,86.40
2017-08-24T04:28:24.122Z,86.70
2017-08-24T04:30:54.296Z,85.80
2017-08-24T04:33:24.466Z,86.40
2017-08-24T04:35:55.123Z,86.00
2017-08-24T04:38:25.342Z,85.00
2017-08-24T04:40:55.563Z,85.20
2017-08-24T04:43:26.086Z,85.50
2017-08-24T04:45:56.422Z,85.60
2017-08-24T04:48:26.587Z,85.00
2017-08-24T04:50:57.502Z,85.00
2017-08-24T04:53:28.662Z,85.00
2017-08-24T04:55:59.815Z,84.20
2017-08-24T04:58:30.159Z,84.20
2017-08-24T05:01:01.477Z,85.00
2017-08-24T05:03:32.023Z,84.90
2017-08-24T05:06:02.202Z,85.10
2017-08-24T05:08:32.461Z,84.90
2017-08-24T05:11:02.819Z,85.70
2017-08-24T05:13:33.374Z,85.60
2017-08-24T05:16:03.870Z,85.10
2017-08-24T05:18:34.333Z,85.90
2017-08-24T05:21:04.772Z,85.70
2017-08-24T05:23:35.130Z,85.80
2017-08-24T05:26:05.726Z,86.00
2017-08-24T05:28:42.441Z,84.90
2017-08-24T05:31:12.676Z,85.10
2017-08-24T05:33:42.944Z,85.40
2017-08-24T05:36:13.146Z,85.80
2017-08-24T05:38:43.551Z,85.20
2017-08-24T05:41:13.835Z,85.70
2017-08-24T05:43:44.198Z,85.30
2017-08-24T05:46:14.645Z,85.00
2017-08-24T05:48:44.999Z,85.30
2017-08-24T05:51:15.362Z,84.90
2017-08-24T05:53:45.904Z,85.20
2017-08-24T05:56:16.164Z,85.70
2017-08-24T05:58:46.523Z,85.40
2017-08-24T06:01:17.931Z,85.30
2017-08-24T06:03:48.277Z,85.30
2017-08-24T06:06:23.468Z,84.70
2017-08-24T06:09:02.582Z,84.80
2017-08-24T06:11:32.874Z,84.40
2017-08-24T06:14:03.228Z,84.10
2017-08-24T06:16:33.595Z,83.80
2017-08-24T06:19:04.303Z,83.40
2017-08-24T06:21:35.879Z,83.70
2017-08-24T06:24:06.165Z,83.90
2017-08-24T06:26:36.682Z,84.00
2017-08-24T06:29:07.019Z,84.10
2017-08-24T06:31:38.182Z,83.30
2017-08-24T06:34:08.555Z,83.20
2017-08-24T06:36:39.005Z,83.50
2017-08-24T06:39:09.789Z,83.80
2017-08-24T06:41:40.167Z,83.30
2017-08-24T06:44:10.626Z,83.40
2017-08-24T06:46:41.049Z,83.00
2017-08-24T06:49:12.884Z,83.00
2017-08-24T06:51:43.429Z,82.90
2017-08-24T06:54:13.647Z,83.90
2017-08-24T06:56:44.011Z,84.20
2017-08-24T06:59:14.412Z,84.30
2017-08-24T07:01:44.712Z,84.70
2017-08-24T07:04:15.503Z,85.20
2017-08-24T07:06:45.961Z,85.40
2017-08-24T07:09:16.340Z,85.20
2017-08-24T07:11:46.891Z,84.70
2017-08-24T07:14:23.553Z,83.90
2017-08-24T07:16:54.038Z,83.60
2017-08-24T07:19:24.490Z,83.30
2017-08-24T07:21:54.863Z,83.70
2017-08-24T07:24:46.514Z,83.90
2017-08-24T07:27:16.780Z,83.80
2017-08-24T07:29:47.136Z,83.60
2017-08-24T07:32:17.737Z,83.00
2017-08-24T07:34:48.075Z,82.40
2017-08-24T07:37:19.841Z,82.50
2017-08-24T07:39:50.126Z,81.90
2017-08-24T07:42:20.395Z,81.80
2017-08-24T07:44:50.794Z,81.20
2017-08-24T07:47:21.200Z,80.70
2017-08-24T07:49:51.539Z,80.80
2017-08-24T07:52:23.889Z,79.60
2017-08-24T07:54:54.178Z,79.50
2017-08-24T07:57:24.610Z,78.20
2017-08-24T07:59:54.910Z,77.50
2017-08-24T08:02:27.485Z,78.00
2017-08-24T08:04:57.777Z,78.10
2017-08-24T08:07:28.072Z,77.70
2017-08-24T08:09:58.619Z,77.80
2017-08-24T08:12:35.578Z,77.60
2017-08-24T08:15:10.364Z,77.00
2017-08-24T08:17:47.134Z,77.00
2017-08-24T08:20:17.524Z,77.50
2017-08-24T08:22:47.999Z,78.20
2017-08-24T08:25:18.482Z,78.30
2017-08-24T08:27:52.914Z,77.80
2017-08-24T08:30:23.239Z,77.80
2017-08-24T08:32:53.639Z,78.00
2017-08-24T08:35:26.399Z,78.20
2017-08-24T08:37:56.786Z,78.40
2017-08-24T08:40:27.143Z,78.80
2017-08-24T08:42:57.655Z,78.90
2017-08-24T08:45:28.098Z,79.70
2017-08-24T08:47:58.591Z,80.30
2017-08-24T08:50:28.987Z,79.80
2017-08-24T08:52:59.446Z,79.60
2017-08-24T08:55:29.767Z,80.00
2017-08-24T08:58:00.281Z,79.80
2017-08-24T09:00:30.658Z,80.20
2017-08-24T09:03:00.919Z,80.10
2017-08-24T09:05:34.956Z,79.10
2017-08-24T09:08:05.349Z,79.60
2017-08-24T09:10:35.775Z,79.70
2017-08-24T09:13:06.340Z,79.50
2017-08-24T09:15:36.762Z,80.10
2017-08-24T09:18:07.038Z,80.30
2017-08-24T09:20:38.962Z,79.40
2017-08-24T09:23:09.382Z,79.30
2017-08-24T09:25:40.027Z,78.90
2017-08-24T09:28:30.453Z,78.60
2017-08-24T09:31:00.773Z,78.60
2017-08-24T09:33:31.185Z,78.70
2017-08-24T09:36:01.530Z,78.80
2017-08-24T09:38:31.830Z,78.40
2017-08-24T09:41:02.314Z,77.90
2017-08-24T09:43:33.435Z,75.70
2017-08-24T09:46:04.083Z,74.80
2017-08-24T09:48:34.494Z,74.60
2017-08-24T09:51:05.268Z,73.40
2017-08-24T09:53:35.775Z,73.40
2017-08-24T09:56:06.149Z,71.30
2017-08-24T09:58:36.606Z,71.10
2017-08-24T10:01:07.109Z,73.00
2017-08-24T10:03:37.469Z,71.10
2017-08-24T10:06:07.755Z,70.90
2017-08-24T10:08:39.628Z,68.70
2017-08-24T10:11:10.085Z,68.80
2017-08-24T10:13:41.017Z,66.90
2017-08-24T10:16:11.456Z,69.60
2017-08-24T10:18:44.208Z,68.70
2017-08-24T10:21:15.300Z,67.80
2017-08-24T10:23:45.577Z,67.70
2017-08-24T10:26:16.026Z,68.00
2017-08-24T10:28:46.499Z,68.70
2017-08-24T10:31:16.865Z,67.80
2017-08-24T10:33:47.615Z,66.70
2017-08-24T10:36:18.101Z,67.40
2017-08-24T10:38:48.642Z,65.70
2017-08-24T10:41:19.524Z,63.90
2017-08-24T10:43:49.802Z,63.30
2017-08-24T10:46:20.401Z,61.50
2017-08-24T10:48:50.943Z,63.00
2017-08-24T10:51:21.488Z,62.50
2017-08-24T10:53:51.863Z,63.30
2017-08-24T10:56:22.263Z,63.50
2017-08-24T10:58:52.755Z,65.00
2017-08-24T11:01:23.003Z,65.00
2017-08-24T11:03:53.650Z,64.00
2017-08-24T11:06:24.866Z,62.90
2017-08-24T11:08:55.268Z,62.80
2017-08-24T11:11:25.993Z,63.00
2017-08-24T11:13:56.410Z,63.50
2017-08-24T11:16:26.876Z,64.80
2017-08-24T11:18:57.328Z,63.00
2017-08-24T11:21:27.676Z,62.20
2017-08-24T11:23:58.031Z,59.90
2017-08-24T11:26:28.527Z,61.90
2017-08-24T11:29:00.181Z,61.90
2017-08-24T11:31:30.534Z,63.00
2017-08-24T11:34:00.895Z,62.20
2017-08-24T11:36:31.254Z,61.70
2017-08-24T11:39:02.308Z,61.60
2017-08-24T11:41:34.386Z,61.50
2017-08-24T11:44:04.854Z,59.80
2017-08-24T11:46:35.628Z,61.50
2017-08-24T11:49:06.085Z,62.40
2017-08-24T11:51:36.553Z,62.60
2017-08-24T11:54:07.035Z,60.70
2017-08-24T11:56:39.135Z,62.70
2017-08-24T11:59:09.673Z,60.10
2017-08-24T12:01:40.426Z,60.80
2017-08-24T12:04:10.949Z,60.90
2017-08-24T12:06:41.770Z,59.80
2017-08-24T12:09:12.202Z,60.10
2017-08-24T12:11:42.582Z,58.70
2017-08-24T12:14:12.948Z,60.20
2017-08-24T12:16:44.811Z,59.40
2017-08-24T12:19:15.126Z,58.70
2017-08-24T12:21:45.536Z,59.10
2017-08-24T12:24:16.007Z,58.80
2017-08-24T12:26:46.294Z,58.60
2017-08-24T12:29:24.083Z,58.60
2017-08-24T12:31:54.686Z,58.00
2017-08-24T12:34:25.930Z,58.10
2017-08-24T12:36:56.586Z,58.10
2017-08-24T12:39:26.956Z,59.50
2017-08-24T12:41:57.483Z,59.70
2017-08-24T12:44:27.955Z,62.00
2017-08-24T12:46:58.550Z,60.70
2017-08-24T12:49:28.965Z,59.40
2017-08-24T12:52:01.935Z,59.10
2017-08-24T12:54:32.305Z,58.10
2017-08-24T12:57:02.658Z,57.50
2017-08-24T12:59:33.243Z,56.40
2017-08-24T13:02:04.093Z,57.10
2017-08-24T13:04:34.448Z,57.00
2017-08-24T13:07:05.924Z,57.80
2017-08-24T13:09:36.400Z,58.40
2017-08-24T13:12:06.826Z,57.40
2017-08-24T13:14:37.251Z,54.90
2017-08-24T13:17:07.696Z,57.20
2017-08-24T13:19:38.365Z,57.70
2017-08-24T13:22:08.839Z,57.40
2017-08-24T13:24:39.424Z,59.20
2017-08-24T13:27:10.004Z,59.40
2017-08-24T13:29:40.382Z,57.90
2017-08-24T13:32:11.219Z,58.40
2017-08-24T13:34:41.996Z,59.40
2017-08-24T13:37:13.214Z,59.70
2017-08-24T13:39:43.704Z,59.70
2017-08-24T13:42:14.069Z,59.00
2017-08-24T13:44:44.799Z,59.50
2017-08-24T13:47:15.284Z,59.30
2017-08-24T13:49:46.204Z,59.60
2017-08-24T13:52:16.742Z,60.40
2017-08-24T13:54:47.502Z,58.50
2017-08-24T13:57:17.998Z,57.70
2017-08-24T13:59:50.651Z,57.70
2017-08-24T14:02:23.357Z,57.20
2017-08-24T14:04:55.956Z,58.00
2017-08-24T14:07:28.002Z,56.60
2017-08-24T14:09:59.991Z,57.00
2017-08-24T14:12:32.866Z,57.20
2017-08-24T14:15:05.239Z,57.60
2017-08-24T14:17:37.030Z,58.20
2017-08-24T14:20:09.767Z,58.00
2017-08-24T14:22:43.492Z,58.40
2017-08-24T14:25:17.108Z,58.40
2017-08-24T14:27:50.812Z,59.40
2017-08-24T14:30:24.964Z,59.10
2017-08-24T14:32:58.811Z,58.60
2017-08-24T14:35:33.129Z,58.10
2017-08-24T14:38:06.686Z,58.30
2017-08-24T14:40:40.050Z,57.60
2017-08-24T14:43:14.135Z,58.10
2017-08-24T14:45:47.482Z,58.20
2017-08-24T14:48:20.171Z,58.90
2017-08-24T14:50:53.477Z,58.50
2017-08-24T14:53:27.104Z,57.60
2017-08-24T14:56:01.279Z,57.10
2017-08-24T14:58:35.389Z,57.10
2017-08-24T15:01:09.197Z,57.10
2017-08-24T15:03:43.700Z,56.80
2017-08-24T15:06:18.216Z,55.90
2017-08-24T15:08:51.677Z,55.90
2017-08-24T15:11:26.199Z,58.50
2017-08-24T15:14:00.355Z,58.50
2017-08-24T15:16:34.988Z,58.90
2017-08-24T15:19:09.318Z,58.90
2017-08-24T15:21:43.033Z,58.60
2017-08-24T15:24:17.480Z,59.50
2017-08-24T15:26:52.649Z,59.20
2017-08-24T15:29:26.612Z,60.10
2017-08-24T15:32:01.235Z,60.10
2017-08-24T15:34:34.989Z,60.50
2017-08-24T15:37:11.219Z,62.10
2017-08-24T15:39:45.339Z,60.30
2017-08-24T15:42:19.425Z,59.00
2017-08-24T15:44:53.759Z,57.90
2017-08-24T15:47:27.411Z,58.30
2017-08-24T15:50:01.173Z,57.70
2017-08-24T15:52:35.045Z,58.10
2017-08-24T15:55:09.479Z,57.40
2017-08-24T15:57:43.602Z,58.60
2017-08-24T16:00:17.192Z,58.80
2017-08-24T16:02:52.776Z,59.60
2017-08-24T16:05:26.829Z,59.40
2017-08-24T16:08:00.877Z,59.20
2017-08-24T16:10:35.200Z,59.90
2017-08-24T16:13:09.554Z,58.60
2017-08-24T16:15:44.491Z,58.60
2017-08-24T16:18:17.905Z,58.20
2017-08-24T16:21:01.563Z,59.10
2017-08-24T16:23:36.421Z,59.70
2017-08-24T16:26:10.533Z,59.70
2017-08-24T16:28:46.082Z,59.60
2017-08-24T16:31:20.562Z,59.20
2017-08-24T16:33:54.230Z,59.50
2017-08-24T16:36:28.446Z,59.80
2017-08-24T16:39:02.338Z,59.70
2017-08-24T16:41:37.134Z,59.70
2017-08-24T16:44:11.149Z,60.10
2017-08-24T16:46:45.269Z,59.70
2017-08-24T16:49:20.772Z,59.80
2017-08-24T16:51:54.781Z,59.80
2017-08-24T16:54:30.489Z,59.00
2017-08-24T16:57:04.529Z,58.00
2017-08-24T16:59:41.061Z,58.90
2017-08-24T17:02:15.095Z,59.80
2017-08-24T17:04:48.961Z,60.50
2017-08-24T17:07:23.749Z,60.50
2017-08-24T17:10:00.066Z,61.00
2017-08-24T17:12:35.283Z,61.20
2017-08-24T17:15:10.069Z,61.60
2017-08-24T17:17:43.987Z,61.50
2017-08-24T17:20:18.966Z,61.60
2017-08-24T17:22:56.065Z,62.10
2017-08-24T17:25:29.949Z,62.10
2017-08-24T17:28:04.240Z,61.90
2017-08-24T17:30:38.942Z,62.00
2017-08-24T17:33:12.833Z,61.90
2017-08-24T17:35:46.718Z,61.50
2017-08-24T17:38:21.334Z,61.30
2017-08-24T17:40:55.175Z,62.00
2017-08-24T17:43:28.851Z,62.10
2017-08-24T17:46:03.219Z,62.00
2017-08-24T17:48:37.710Z,61.90
2017-08-24T17:51:12.833Z,62.20
2017-08-24T17:53:46.925Z,62.20
2017-08-24T17:56:21.412Z,61.90
2017-08-24T17:58:55.265Z,61.90
2017-08-24T18:01:29.302Z,62.20
2017-08-24T18:04:03.363Z,62.20
2017-08-24T18:06:44.638Z,62.00
2017-08-24T18:09:18.370Z,62.30
2017-08-24T18:11:52.257Z,62.40
2017-08-24T18:14:29.164Z,62.60
2017-08-24T18:17:02.977Z,63.00
2017-08-24T18:19:37.196Z,62.50
2017-08-24T18:22:11.262Z,62.80
2017-08-24T18:24:45.288Z,62.80
2017-08-24T18:27:19.360Z,62.80
2017-08-24T18:29:53.179Z,62.70
2017-08-24T18:32:27.203Z,62.70
2017-08-24T18:35:01.491Z,63.10
2017-08-24T18:37:37.718Z,62.90
2017-08-24T18:40:11.646Z,63.00
2017-08-24T18:42:45.996Z,63.30
2017-08-24T18:45:22.699Z,63.30
2017-08-24T18:47:57.457Z,63.80
2017-08-24T18:50:31.192Z,63.70
2017-08-24T18:53:06.224Z,64.40
2017-08-24T18:55:41.206Z,64.40
2017-08-24T18:58:15.584Z,64.90
2017-08-24T19:00:49.364Z,64.90
2017-08-24T19:03:23.507Z,65.00
2017-08-24T19:05:57.490Z,65.40
2017-08-24T19:08:32.369Z,65.70
2017-08-24T19:11:06.505Z,66.10
2017-08-24T19:13:49.050Z,66.30
2017-08-24T19:16:33.660Z,66.10
2017-08-24T19:19:12.355Z,66.40
2017-08-24T19:21:49.479Z,66.20
2017-08-24T19:24:27.485Z,67.10
2017-08-24T19:27:02.869Z,67.00
2017-08-24T19:29:37.106Z,67.20
2017-08-24T19:32:13.007Z,67.50
2017-08-24T19:34:47.117Z,67.30
2017-08-24T19:37:22.666Z,67.70
2017-08-24T19:39:57.131Z,67.70
2017-08-24T19:42:33.708Z,67.80
2017-08-24T19:45:07.935Z,67.20
2017-08-24T19:47:43.845Z,67.40
2017-08-24T19:50:18.372Z,67.20
2017-08-24T19:52:52.818Z,67.80
2017-08-24T19:55:27.130Z,67.80
2017-08-24T19:58:01.598Z,68.10
2017-08-24T20:00:37.018Z,68.40
2017-08-24T20:03:11.365Z,68.60
2017-08-24T20:05:45.958Z,68.60
2017-08-24T20:08:20.205Z,68.80
2017-08-24T20:10:54.159Z,68.50
2017-08-24T20:13:28.428Z,68.30
2017-08-24T20:16:03.175Z,68.80
2017-08-24T20:18:37.985Z,68.30
2017-08-24T20:21:13.441Z,68.30
2017-08-24T20:23:47.343Z,68.30
2017-08-24T20:26:24.506Z,68.00
2017-08-24T20:28:58.660Z,68.10
2017-08-24T20:31:33.230Z,68.20
2017-08-24T20:34:07.197Z,67.90
2017-08-24T20:36:40.873Z,68.10
2017-08-24T20:39:14.731Z,69.00
2017-08-24T20:41:48.553Z,68.30
2017-08-24T20:44:37.856Z,68.50
2017-08-24T20:47:11.705Z,68.20
2017-08-24T20:49:46.029Z,68.40
2017-08-24T20:52:20.722Z,68.00
2017-08-24T20:54:54.653Z,67.70
2017-08-24T20:57:29.811Z,67.70
2017-08-24T21:00:04.216Z,67.70
2017-08-24T21:02:38.372Z,68.00
2017-08-24T21:05:12.591Z,68.60
2017-08-24T21:07:46.409Z,68.50
2017-08-24T21:10:20.395Z,68.70
2017-08-24T21:12:58.199Z,69.00
2017-08-24T21:15:31.944Z,68.90
2017-08-24T21:18:06.067Z,68.80
2017-08-24T21:20:39.867Z,69.10
2017-08-24T21:23:14.124Z,69.30
2017-08-24T21:25:48.032Z,69.20
2017-08-24T21:28:21.571Z,69.00
2017-08-24T21:30:55.286Z,69.00
2017-08-24T21:33:29.246Z,68.90
2017-08-24T21:36:02.469Z,68.90
2017-08-24T21:38:35.766Z,68.90
2017-08-24T21:41:07.401Z,68.80
2017-08-24T21:43:38.191Z,68.50
2017-08-24T21:46:09.067Z,68.90
2017-08-24T21:48:39.822Z,68.60
2017-08-24T21:51:11.068Z,68.50
2017-08-24T21:53:47.530Z,68.50
2017-08-24T21:56:18.266Z,68.70
2017-08-24T21:58:49.271Z,69.20
2017-08-24T22:01:19.685Z,69.10
2017-08-24T22:03:50.063Z,69.30
2017-08-24T22:06:20.428Z,69.70
2017-08-24T22:08:50.804Z,70.10
2017-08-24T22:11:21.206Z,70.10
2017-08-24T22:13:59.368Z,70.40
2017-08-24T22:16:29.862Z,70.60
2017-08-24T22:19:00.328Z,70.50
2017-08-24T22:21:30.770Z,71.20
2017-08-24T22:24:01.157Z,71.00
2017-08-24T22:26:31.421Z,71.30
2017-08-24T22:29:01.794Z,71.30
2017-08-24T22:31:33.494Z,71.30
2017-08-24T22:34:03.893Z,71.10
2017-08-24T22:36:34.053Z,72.00
2017-08-24T22:39:07.961Z,71.80
2017-08-24T22:41:38.466Z,71.40
2017-08-24T22:44:08.770Z,71.80
2017-08-24T22:46:39.093Z,71.70
2017-08-24T22:49:09.714Z,72.10
2017-08-24T22:51:40.605Z,72.60
2017-08-24T22:54:14.915Z,72.30
2017-08-24T22:58:55.773Z,71.90
2017-08-24T23:02:29.412Z,71.90
2017-08-24T23:05:06.540Z,73.30
2017-08-24T23:07:37.083Z,72.60
2017-08-24T23:10:07.559Z,72.40
2017-08-24T23:12:37.882Z,72.60
2017-08-24T23:15:08.058Z,72.60
2017-08-24T23:17:41.855Z,72.90
2017-08-24T23:20:12.024Z,73.60
2017-08-24T23:22:43.169Z,73.40
2017-08-24T23:25:13.506Z,73.30
2017-08-24T23:27:44.798Z,73.00
2017-08-24T23:30:14.982Z,72.90
2017-08-24T23:32:45.772Z,72.70
2017-08-24T23:35:18.975Z,72.90
2017-08-24T23:37:49.450Z,72.90
2017-08-24T23:40:19.626Z,72.90
2017-08-24T23:42:49.892Z,72.70
2017-08-24T23:45:33.046Z,72.90
2017-08-24T23:48:03.225Z,72.80
2017-08-24T23:50:33.414Z,72.70
2017-08-24T23:53:04.284Z,72.60
2017-08-24T23:55:34.554Z,72.40
2017-08-24T23:58:04.895Z,72.50
